Aeroporto :
LOGIN :

Iscrizione | Disclaimer

   EN    FR    IT 

 










Sommario :    VFR   VFR Marginale   IFR   IFR Intensivo   IFR Molto Intensivo
Visibilità : 
Base nubi : 
>= 8 km
>= 3000ft
5 / 8 km
1000 / 3000 ft
1500m / 5 km
500 / 1000 ft
800 / 1500m
200 / 500 ft
< 800m
< 200 ft
Simboli :   Temporali  Nebbia  Neve Forte  Precipitazioni Forti  Vento > 20 kt
SIGMETs :   Varie  Temporali  Ghiacco  Turbolenza  Onda orograficha  Ceneri Vulcaniche






- Altitudine del aeroporto : 13 ft
- Codice IATA : SNR


LFRZ - St-Nazaire

ULTIMO METAR :
  • 211300Z AUTO 01010KT 9999 OVC033 11/05 Q1026 TEMPO 02015G25KT

METARs OBSOLETI :
  • 211230Z AUTO 02009KT 340V050 9999 OVC036 11/04 Q1026 TEMPO 02015G25KT
  • 211200Z AUTO 03010KT 9999 SCT036 BKN042 OVC048 11/04 Q1027 TEMPO 02015G25KT
  • 211130Z AUTO 03010KT 350V070 9999 BKN039 BKN045 OVC054 11/04 Q1027 TEMPO 02015G25KT
  • 211100Z AUTO 03010KT 340V070 9999 FEW036 SCT049 OVC056 12/04 Q1027 TEMPO 02015G25KT
  • 211030Z AUTO 04010KT 350V080 9999 FEW038 OVC050 11/03 Q1027 TEMPO 02015G25KT
  • 211000Z AUTO 03012KT 360V060 9999 SCT034 SCT040 OVC054 11/03 Q1027 TEMPO 02015G25KT
  • 210930Z AUTO 02012KT 350V050 9999 SCT033 BKN040 BKN054 11/03 Q1027 TEMPO 02015G25KT
  • 210900Z AUTO 05012KT 010V070 CAVOK 11/05 Q1027 TEMPO 02015G25KT
  • 210830Z AUTO 04011KT 010V070 CAVOK 10/04 Q1027 TEMPO 02015G25KT

TAF TAF LFRZ
Valido dal 21 a 12 ore il 22 a 12 ore UTC


211100Z 2112/2212 04010KT 9999 FEW040 OVC050
TEMPO 2112/2118 02015G25KT



MetMap, La meteo Aeronautica in un colpo d'occhio ! - Copyright ORBIFLY Dicembre 2007 - Disclaimer

ORBIFLY MET'MAP TEAM :

Programmazione e sviluppo : Alexandra Zaïnal
Concezione : Baudouin d'Aumeries
Supporto tecnico e logistico : Manuel Goepfert
Aiuto : Marc-Olivier Méhu
Aiuto per la traduzione : Arnaldo La Scala




FONTI E CREDITI :

   NOAA